createdAt,value
2023-03-17T00:01:00.229Z,434.95
2023-03-17T00:06:04.866Z,450.77
2023-03-17T00:11:13.987Z,371.35
2023-03-17T00:16:22.406Z,451.38
2023-03-17T00:21:34.410Z,468.98
2023-03-17T00:26:37.116Z,443.38
2023-03-17T00:31:40.414Z,438.23
2023-03-17T00:36:46.437Z,428.08
2023-03-17T00:41:49.412Z,415.98
2023-03-17T00:46:53.520Z,456.73
2023-03-17T00:51:56.248Z,396.38
2023-03-17T00:56:59.004Z,446.70
2023-03-17T01:02:01.959Z,456.75
2023-03-17T01:07:05.221Z,410.02
2023-03-17T01:12:12.895Z,459.60
2023-03-17T01:17:18.482Z,456.70
2023-03-17T01:22:21.048Z,429.23
2023-03-17T01:27:24.374Z,424.80
2023-03-17T01:32:27.346Z,418.50
2023-03-17T01:37:29.967Z,408.25
2023-03-17T01:42:32.877Z,433.42
2023-03-17T01:47:36.506Z,418.05
2023-03-17T01:52:40.790Z,429.13
2023-03-17T01:57:54.768Z,363.15
2023-03-17T02:02:57.772Z,391.70
2023-03-17T02:08:00.570Z,401.52
2023-03-17T02:13:05.987Z,385.90
2023-03-17T02:18:10.239Z,429.23
2023-03-17T02:23:17.313Z,403.13
2023-03-17T02:28:26.245Z,412.33
2023-03-17T02:33:29.044Z,393.88
2023-03-17T02:38:32.063Z,390.92
2023-03-17T02:43:36.487Z,358.30
2023-03-17T02:48:40.785Z,395.73
2023-03-17T02:53:43.325Z,367.80
2023-03-17T02:58:45.773Z,341.88
2023-03-17T03:03:48.843Z,369.52
2023-03-17T03:08:52.229Z,367.58
2023-03-17T03:13:54.792Z,379.95
2023-03-17T03:18:57.780Z,381.45
2023-03-17T03:24:00.361Z,331.92
2023-03-17T03:29:04.378Z,334.08
2023-03-17T03:34:07.599Z,349.73
2023-03-17T03:39:11.904Z,328.27
2023-03-17T03:44:15.712Z,346.08
2023-03-17T03:49:18.359Z,335.48
2023-03-17T03:54:21.025Z,281.80
2023-03-17T03:59:23.669Z,297.73
2023-03-17T04:04:26.694Z,314.80
2023-03-17T04:09:29.307Z,296.23
2023-03-17T04:14:31.952Z,333.25
2023-03-17T04:19:34.468Z,303.25
2023-03-17T04:24:37.415Z,288.45
2023-03-17T04:29:40.027Z,316.92
2023-03-17T04:34:43.214Z,273.33
2023-03-17T04:39:45.860Z,272.95
2023-03-17T04:44:48.352Z,304.65
2023-03-17T04:49:51.050Z,293.00
2023-03-17T04:54:53.706Z,281.48
2023-03-17T04:59:57.849Z,275.10
2023-03-17T05:05:00.680Z,278.63
2023-03-17T05:10:03.526Z,274.35
2023-03-17T05:15:07.141Z,272.55
2023-03-17T05:20:11.024Z,260.45
2023-03-17T05:25:13.575Z,281.13
2023-03-17T05:30:17.222Z,276.70
2023-03-17T05:35:20.227Z,271.42
2023-03-17T05:40:24.677Z,265.13
2023-03-17T05:45:27.292Z,260.42
2023-03-17T05:50:31.184Z,251.95
2023-03-17T05:55:33.864Z,236.52
2023-03-17T06:00:38.035Z,253.77
2023-03-17T06:05:41.065Z,250.73
2023-03-17T06:10:43.835Z,262.20
2023-03-17T06:15:48.806Z,217.38
2023-03-17T06:20:51.863Z,273.10
2023-03-17T06:25:54.665Z,238.00
2023-03-17T06:30:57.311Z,256.10
2023-03-17T06:36:00.928Z,276.67
2023-03-17T06:41:03.772Z,266.17
2023-03-17T06:46:07.698Z,257.77
2023-03-17T06:51:10.501Z,246.82
2023-03-17T06:56:27.373Z,223.40
2023-03-17T07:01:32.560Z,248.90
2023-03-17T07:06:35.641Z,221.75
2023-03-17T07:11:38.723Z,231.48
2023-03-17T07:16:41.280Z,235.63
2023-03-17T07:21:45.991Z,257.15
2023-03-17T07:26:49.621Z,222.00
2023-03-17T07:31:52.344Z,228.05
2023-03-17T07:36:55.015Z,219.10
2023-03-17T07:41:57.543Z,226.00
2023-03-17T07:47:00.781Z,211.88
2023-03-17T07:52:03.514Z,246.00
2023-03-17T07:57:06.616Z,215.80
2023-03-17T08:02:16.755Z,219.95
2023-03-17T08:12:22.382Z,224.35
2023-03-17T08:17:27.850Z,238.27
2023-03-17T08:22:30.574Z,244.98
2023-03-17T08:27:33.963Z,211.13
2023-03-17T08:32:37.304Z,229.48
2023-03-17T08:37:40.699Z,210.98
2023-03-17T08:42:45.001Z,207.00
2023-03-17T08:47:48.230Z,203.85
2023-03-17T08:52:52.054Z,207.48
2023-03-17T08:57:54.675Z,204.82
2023-03-17T09:02:58.394Z,204.02
2023-03-17T09:08:01.216Z,205.35
2023-03-17T09:13:04.578Z,240.35
2023-03-17T09:18:09.327Z,188.50
2023-03-17T09:23:14.457Z,197.13
2023-03-17T09:28:17.705Z,191.73
2023-03-17T09:38:28.740Z,135.20
2023-03-17T09:43:55.894Z,190.30
2023-03-17T09:49:12.179Z,173.95
2023-03-17T09:54:28.399Z,193.73
2023-03-17T10:04:37.442Z,185.65
2023-03-17T10:09:47.138Z,174.82
2023-03-17T10:20:13.070Z,185.88
2023-03-17T10:25:18.011Z,144.27
2023-03-17T10:30:23.744Z,149.80
2023-03-17T10:35:26.752Z,169.68
2023-03-17T10:40:31.994Z,177.85
2023-03-17T10:45:40.955Z,170.13
2023-03-17T10:50:49.378Z,126.40
2023-03-17T10:55:53.662Z,155.05
2023-03-17T11:01:03.534Z,188.48
2023-03-17T11:06:13.300Z,158.60
2023-03-17T11:16:39.311Z,160.45
2023-03-17T11:22:16.073Z,187.07
2023-03-17T11:27:35.233Z,160.57
2023-03-17T11:32:52.124Z,166.90
2023-03-17T11:38:22.389Z,145.00
2023-03-17T11:43:54.667Z,150.90
2023-03-17T11:49:05.362Z,171.15
2023-03-17T11:54:54.248Z,160.40
2023-03-17T12:00:31.945Z,178.60
2023-03-17T12:05:37.704Z,176.88
2023-03-17T12:10:48.028Z,176.07
2023-03-17T12:16:01.357Z,178.40
2023-03-17T12:21:23.698Z,157.15
2023-03-17T12:26:40.193Z,150.02
2023-03-17T12:32:09.069Z,165.82
2023-03-17T12:37:13.319Z,187.57
2023-03-17T12:47:58.604Z,163.55
2023-03-17T12:53:06.151Z,169.98
2023-03-17T12:58:27.190Z,113.18
2023-03-17T13:03:34.947Z,163.73
2023-03-17T13:08:42.590Z,156.60
2023-03-17T13:14:15.736Z,132.52
2023-03-17T13:19:28.799Z,137.15
2023-03-17T13:24:40.949Z,155.48
2023-03-17T13:29:46.097Z,169.43
2023-03-17T13:35:02.583Z,141.50
2023-03-17T13:40:23.578Z,184.02
2023-03-17T13:45:48.976Z,180.68
2023-03-17T13:51:04.597Z,258.92
2023-03-17T13:56:49.358Z,259.13
2023-03-17T14:02:02.187Z,253.63
2023-03-17T14:07:16.438Z,253.90
2023-03-17T14:12:51.125Z,239.23
2023-03-17T14:18:03.604Z,227.07
2023-03-17T14:23:06.934Z,230.27
2023-03-17T14:28:16.980Z,220.68
2023-03-17T14:33:38.260Z,235.25
2023-03-17T14:38:48.824Z,228.00
2023-03-17T14:43:53.076Z,231.88
2023-03-17T14:49:17.017Z,201.00
2023-03-17T14:54:24.487Z,203.32
2023-03-17T14:59:37.942Z,192.45
2023-03-17T15:05:12.754Z,189.60
2023-03-17T15:10:26.174Z,198.55
2023-03-17T15:15:35.021Z,197.93
2023-03-17T15:20:39.548Z,214.93
2023-03-17T15:25:50.207Z,200.68
2023-03-17T15:30:56.719Z,230.05
2023-03-17T15:36:08.411Z,210.35
2023-03-17T15:41:13.713Z,203.57
2023-03-17T15:46:28.108Z,203.07
2023-03-17T15:51:31.415Z,170.98
2023-03-17T15:56:35.783Z,196.77
2023-03-17T16:01:39.563Z,197.80
2023-03-17T16:06:43.058Z,192.07
2023-03-17T16:11:47.873Z,192.30
2023-03-17T16:16:53.080Z,206.27
2023-03-17T16:21:56.629Z,176.70
2023-03-17T16:26:59.432Z,199.88
2023-03-17T16:32:02.852Z,197.25
2023-03-17T16:37:05.984Z,201.77
2023-03-17T16:42:24.763Z,166.38
2023-03-17T16:47:28.348Z,201.65
2023-03-17T16:52:31.583Z,185.18
2023-03-17T16:57:34.844Z,157.35
2023-03-17T17:02:37.465Z,201.18
2023-03-17T17:07:40.021Z,222.85
2023-03-17T17:12:43.449Z,172.38
2023-03-17T17:17:51.175Z,150.07
2023-03-17T17:22:53.768Z,218.15
2023-03-17T17:27:57.948Z,182.93
2023-03-17T17:33:01.166Z,193.70
2023-03-17T17:38:04.501Z,186.85
2023-03-17T17:43:07.076Z,193.45
2023-03-17T17:48:11.298Z,185.52
2023-03-17T17:53:15.040Z,191.13
2023-03-17T17:58:22.440Z,178.52
2023-03-17T18:03:26.566Z,191.27
2023-03-17T18:08:29.444Z,169.07
2023-03-17T18:13:33.011Z,194.73
2023-03-17T18:18:40.748Z,200.75
2023-03-17T18:23:47.567Z,196.70
2023-03-17T18:28:51.083Z,215.88
2023-03-17T18:33:58.142Z,192.80
2023-03-17T18:39:00.781Z,198.13
2023-03-17T18:44:03.724Z,180.05
2023-03-17T18:49:07.175Z,180.73
2023-03-17T18:54:10.148Z,188.38
2023-03-17T18:59:12.835Z,166.55
2023-03-17T19:04:15.830Z,138.05
2023-03-17T19:09:18.633Z,170.63
2023-03-17T19:14:21.245Z,176.85
2023-03-17T19:19:24.669Z,169.52
2023-03-17T19:24:27.806Z,174.93
2023-03-17T19:29:30.472Z,172.65
2023-03-17T19:34:32.964Z,145.55
2023-03-17T19:39:37.827Z,166.65
2023-03-17T19:44:40.835Z,150.20
2023-03-17T19:49:44.289Z,172.40
2023-03-17T19:54:46.920Z,174.25
2023-03-17T19:59:50.739Z,153.05
2023-03-17T20:04:53.786Z,157.68
2023-03-17T20:09:56.626Z,152.88
2023-03-17T20:15:01.676Z,132.70
2023-03-17T20:20:07.907Z,165.63
2023-03-17T20:30:13.624Z,172.30
2023-03-17T20:35:16.292Z,166.80
2023-03-17T20:40:19.154Z,168.88
2023-03-17T20:45:22.146Z,148.68
2023-03-17T20:50:25.468Z,124.70
2023-03-17T20:55:28.527Z,144.68
2023-03-17T21:00:32.147Z,140.40
2023-03-17T21:05:35.840Z,161.15
2023-03-17T21:10:38.504Z,165.05
2023-03-17T21:15:41.603Z,158.60
2023-03-17T21:20:44.157Z,164.43
2023-03-17T21:25:46.698Z,147.38
2023-03-17T21:30:49.819Z,157.88
2023-03-17T21:35:52.461Z,177.23
2023-03-17T21:40:56.150Z,182.32
2023-03-17T21:45:58.857Z,191.90
2023-03-17T21:51:01.448Z,182.65
2023-03-17T21:56:04.358Z,189.25
2023-03-17T22:01:07.042Z,163.85
2023-03-17T22:06:11.560Z,138.88
2023-03-17T22:11:17.924Z,136.52
2023-03-17T22:16:21.897Z,145.60
2023-03-17T22:21:25.302Z,132.98
2023-03-17T22:26:28.762Z,131.98
2023-03-17T22:31:31.676Z,166.60
2023-03-17T22:36:34.325Z,159.93
2023-03-17T22:41:38.202Z,179.93
2023-03-17T22:46:43.933Z,143.18
2023-03-17T22:51:48.222Z,129.45
2023-03-17T22:56:51.040Z,139.05
2023-03-17T23:01:53.452Z,162.88
2023-03-17T23:06:56.633Z,127.97
2023-03-17T23:11:59.946Z,138.30
2023-03-17T23:17:02.565Z,139.52
2023-03-17T23:22:05.205Z,151.70
2023-03-17T23:27:08.312Z,129.00
2023-03-17T23:32:12.710Z,142.77
2023-03-17T23:37:15.217Z,144.32
2023-03-17T23:42:18.417Z,130.43
2023-03-17T23:47:22.807Z,143.52
2023-03-17T23:52:25.891Z,139.80
2023-03-17T23:57:28.422Z,123.40
